sensor_id;sensor_type;location;lat;lon;timestamp;temperature;humidity
22167;DHT22;11249;52.468;13.776;2023-05-07T00:00:20;8.80;99.90
22167;DHT22;11249;52.468;13.776;2023-05-07T00:02:47;8.80;99.90
22167;DHT22;11249;52.468;13.776;2023-05-07T00:05:14;8.80;99.90
22167;DHT22;11249;52.468;13.776;2023-05-07T00:07:41;8.70;99.90
22167;DHT22;11249;52.468;13.776;2023-05-07T00:10:10;8.70;99.90
22167;DHT22;11249;52.468;13.776;2023-05-07T00:12:40;8.60;99.90
22167;DHT22;11249;52.468;13.776;2023-05-07T00:15:07;8.60;99.90
22167;DHT22;11249;52.468;13.776;2023-05-07T00:17:34;8.60;99.90
22167;DHT22;11249;52.468;13.776;2023-05-07T00:20:02;8.60;99.90
22167;DHT22;11249;52.468;13.776;2023-05-07T00:23:04;8.60;99.90
22167;DHT22;11249;52.468;13.776;2023-05-07T00:25:31;8.50;99.90
22167;DHT22;11249;52.468;13.776;2023-05-07T00:27:57;8.50;99.90
22167;DHT22;11249;52.468;13.776;2023-05-07T00:30:29;8.50;99.90
22167;DHT22;11249;52.468;13.776;2023-05-07T00:32:56;8.50;99.90
22167;DHT22;11249;52.468;13.776;2023-05-07T00:35:23;8.50;99.90
22167;DHT22;11249;52.468;13.776;2023-05-07T00:37:50;8.50;99.90
22167;DHT22;11249;52.468;13.776;2023-05-07T00:40:16;8.50;99.90
22167;DHT22;11249;52.468;13.776;2023-05-07T00:42:43;8.60;99.90
22167;DHT22;11249;52.468;13.776;2023-05-07T00:45:13;8.60;99.90
22167;DHT22;11249;52.468;13.776;2023-05-07T00:47:40;8.60;99.90
22167;DHT22;11249;52.468;13.776;2023-05-07T00:50:08;8.60;99.90
22167;DHT22;11249;52.468;13.776;2023-05-07T00:52:38;8.60;99.90
22167;DHT22;11249;52.468;13.776;2023-05-07T00:55:06;8.60;99.90
22167;DHT22;11249;52.468;13.776;2023-05-07T00:57:37;8.60;99.90
22167;DHT22;11249;52.468;13.776;2023-05-07T01:00:08;8.60;99.90
22167;DHT22;11249;52.468;13.776;2023-05-07T01:02:36;8.60;99.90
22167;DHT22;11249;52.468;13.776;2023-05-07T01:05:05;8.60;99.90
22167;DHT22;11249;52.468;13.776;2023-05-07T01:07:34;8.60;99.90
22167;DHT22;11249;52.468;13.776;2023-05-07T01:10:03;8.60;99.90
22167;DHT22;11249;52.468;13.776;2023-05-07T01:12:31;8.60;99.90
22167;DHT22;11249;52.468;13.776;2023-05-07T01:14:58;8.60;99.90
22167;DHT22;11249;52.468;13.776;2023-05-07T01:17:24;8.60;99.90
22167;DHT22;11249;52.468;13.776;2023-05-07T01:19:51;8.60;99.90
22167;DHT22;11249;52.468;13.776;2023-05-07T01:22:31;8.60;99.90
22167;DHT22;11249;52.468;13.776;2023-05-07T01:24:59;8.60;99.90
22167;DHT22;11249;52.468;13.776;2023-05-07T01:27:28;8.60;99.90
22167;DHT22;11249;52.468;13.776;2023-05-07T01:29:55;8.70;99.90
22167;DHT22;11249;52.468;13.776;2023-05-07T01:32:33;8.70;99.90
22167;DHT22;11249;52.468;13.776;2023-05-07T01:35:04;8.70;99.90
22167;DHT22;11249;52.468;13.776;2023-05-07T01:37:32;8.70;99.90
22167;DHT22;11249;52.468;13.776;2023-05-07T01:40:01;8.70;99.90
22167;DHT22;11249;52.468;13.776;2023-05-07T01:42:29;8.70;99.90
22167;DHT22;11249;52.468;13.776;2023-05-07T01:44:56;8.70;99.90
22167;DHT22;11249;52.468;13.776;2023-05-07T01:47:23;8.70;99.90
22167;DHT22;11249;52.468;13.776;2023-05-07T01:49:50;8.70;99.90
22167;DHT22;11249;52.468;13.776;2023-05-07T01:52:17;8.70;99.90
22167;DHT22;11249;52.468;13.776;2023-05-07T01:54:44;8.70;99.90
22167;DHT22;11249;52.468;13.776;2023-05-07T01:57:11;8.80;99.90
22167;DHT22;11249;52.468;13.776;2023-05-07T01:59:37;8.80;99.90
22167;DHT22;11249;52.468;13.776;2023-05-07T02:02:04;8.70;99.90
22167;DHT22;11249;52.468;13.776;2023-05-07T02:04:31;8.70;99.90
22167;DHT22;11249;52.468;13.776;2023-05-07T02:06:57;8.60;99.90
22167;DHT22;11249;52.468;13.776;2023-05-07T02:09:24;8.60;99.90
22167;DHT22;11249;52.468;13.776;2023-05-07T02:11:51;8.60;99.90
22167;DHT22;11249;52.468;13.776;2023-05-07T02:14:17;8.60;99.90
22167;DHT22;11249;52.468;13.776;2023-05-07T02:16:46;8.70;99.90
22167;DHT22;11249;52.468;13.776;2023-05-07T02:19:13;8.60;99.90
22167;DHT22;11249;52.468;13.776;2023-05-07T02:21:40;8.60;99.90
22167;DHT22;11249;52.468;13.776;2023-05-07T02:24:06;8.60;99.90
22167;DHT22;11249;52.468;13.776;2023-05-07T02:26:33;8.60;99.90
22167;DHT22;11249;52.468;13.776;2023-05-07T02:29:00;8.60;99.90
22167;DHT22;11249;52.468;13.776;2023-05-07T02:31:27;8.70;99.90
22167;DHT22;11249;52.468;13.776;2023-05-07T02:33:53;8.70;99.90
22167;DHT22;11249;52.468;13.776;2023-05-07T02:36:20;8.70;99.90
22167;DHT22;11249;52.468;13.776;2023-05-07T02:38:47;8.70;99.90
22167;DHT22;11249;52.468;13.776;2023-05-07T02:41:13;8.60;99.90
22167;DHT22;11249;52.468;13.776;2023-05-07T02:43:40;8.50;99.90
22167;DHT22;11249;52.468;13.776;2023-05-07T02:46:08;8.60;99.90
22167;DHT22;11249;52.468;13.776;2023-05-07T02:48:36;8.50;99.90
22167;DHT22;11249;52.468;13.776;2023-05-07T02:51:03;8.60;99.90
22167;DHT22;11249;52.468;13.776;2023-05-07T02:53:30;8.50;99.90
22167;DHT22;11249;52.468;13.776;2023-05-07T02:55:58;8.50;99.90
22167;DHT22;11249;52.468;13.776;2023-05-07T02:58:25;8.50;99.90
22167;DHT22;11249;52.468;13.776;2023-05-07T03:00:52;8.50;99.90
22167;DHT22;11249;52.468;13.776;2023-05-07T03:03:21;8.50;99.90
22167;DHT22;11249;52.468;13.776;2023-05-07T03:05:47;8.50;99.90
22167;DHT22;11249;52.468;13.776;2023-05-07T03:08:14;8.50;99.90
22167;DHT22;11249;52.468;13.776;2023-05-07T03:10:41;8.50;99.90
22167;DHT22;11249;52.468;13.776;2023-05-07T03:13:07;8.50;99.90
22167;DHT22;11249;52.468;13.776;2023-05-07T03:15:34;8.50;99.90
22167;DHT22;11249;52.468;13.776;2023-05-07T03:18:01;8.50;99.90
22167;DHT22;11249;52.468;13.776;2023-05-07T03:20:28;8.40;99.90
22167;DHT22;11249;52.468;13.776;2023-05-07T03:22:56;8.30;99.90
22167;DHT22;11249;52.468;13.776;2023-05-07T03:25:23;8.30;99.90
22167;DHT22;11249;52.468;13.776;2023-05-07T03:27:50;8.30;99.90
22167;DHT22;11249;52.468;13.776;2023-05-07T03:30:16;8.30;99.90
22167;DHT22;11249;52.468;13.776;2023-05-07T03:32:43;8.30;99.90
22167;DHT22;11249;52.468;13.776;2023-05-07T03:35:10;8.30;99.90
22167;DHT22;11249;52.468;13.776;2023-05-07T03:37:38;8.30;99.90
22167;DHT22;11249;52.468;13.776;2023-05-07T03:40:05;8.30;99.90
22167;DHT22;11249;52.468;13.776;2023-05-07T03:42:32;8.30;99.90
22167;DHT22;11249;52.468;13.776;2023-05-07T03:44:59;8.40;99.90
22167;DHT22;11249;52.468;13.776;2023-05-07T03:47:25;8.40;99.90
22167;DHT22;11249;52.468;13.776;2023-05-07T03:49:52;8.40;99.90
22167;DHT22;11249;52.468;13.776;2023-05-07T03:52:20;8.40;99.90
22167;DHT22;11249;52.468;13.776;2023-05-07T03:54:52;8.30;99.90
22167;DHT22;11249;52.468;13.776;2023-05-07T03:57:19;8.40;99.90
22167;DHT22;11249;52.468;13.776;2023-05-07T03:59:45;8.40;99.90
22167;DHT22;11249;52.468;13.776;2023-05-07T04:02:12;8.40;99.90
22167;DHT22;11249;52.468;13.776;2023-05-07T04:04:39;8.40;99.90
22167;DHT22;11249;52.468;13.776;2023-05-07T04:07:06;8.40;99.90
22167;DHT22;11249;52.468;13.776;2023-05-07T04:09:33;8.40;99.90
22167;DHT22;11249;52.468;13.776;2023-05-07T04:12:00;8.40;99.90
22167;DHT22;11249;52.468;13.776;2023-05-07T04:14:27;8.40;99.90
22167;DHT22;11249;52.468;13.776;2023-05-07T04:16:54;8.40;99.90
22167;DHT22;11249;52.468;13.776;2023-05-07T04:19:21;8.40;99.90
22167;DHT22;11249;52.468;13.776;2023-05-07T04:21:47;8.40;99.90
22167;DHT22;11249;52.468;13.776;2023-05-07T04:24:14;8.40;99.90
22167;DHT22;11249;52.468;13.776;2023-05-07T04:26:41;8.50;99.90
22167;DHT22;11249;52.468;13.776;2023-05-07T04:29:08;8.40;99.90
22167;DHT22;11249;52.468;13.776;2023-05-07T04:31:34;8.50;99.90
22167;DHT22;11249;52.468;13.776;2023-05-07T04:34:01;8.50;99.90
22167;DHT22;11249;52.468;13.776;2023-05-07T04:36:28;8.50;99.90
22167;DHT22;11249;52.468;13.776;2023-05-07T04:38:55;8.50;99.90
22167;DHT22;11249;52.468;13.776;2023-05-07T04:41:22;8.60;99.90
22167;DHT22;11249;52.468;13.776;2023-05-07T04:43:49;8.70;99.90
22167;DHT22;11249;52.468;13.776;2023-05-07T04:46:16;8.70;99.90
22167;DHT22;11249;52.468;13.776;2023-05-07T04:48:42;8.70;99.90
22167;DHT22;11249;52.468;13.776;2023-05-07T04:51:09;8.70;99.90
22167;DHT22;11249;52.468;13.776;2023-05-07T04:53:37;8.80;99.90
22167;DHT22;11249;52.468;13.776;2023-05-07T04:56:04;8.70;99.90
22167;DHT22;11249;52.468;13.776;2023-05-07T04:58:31;8.80;99.90
22167;DHT22;11249;52.468;13.776;2023-05-07T05:00:59;8.80;99.90
22167;DHT22;11249;52.468;13.776;2023-05-07T05:03:27;8.80;99.90
22167;DHT22;11249;52.468;13.776;2023-05-07T05:05:53;8.80;99.90
22167;DHT22;11249;52.468;13.776;2023-05-07T05:08:20;8.80;99.90
22167;DHT22;11249;52.468;13.776;2023-05-07T05:10:47;8.90;99.90
22167;DHT22;11249;52.468;13.776;2023-05-07T05:13:16;9.00;99.90
22167;DHT22;11249;52.468;13.776;2023-05-07T05:15:43;8.90;99.90
22167;DHT22;11249;52.468;13.776;2023-05-07T05:18:10;9.00;99.90
22167;DHT22;11249;52.468;13.776;2023-05-07T05:20:37;9.10;99.90
22167;DHT22;11249;52.468;13.776;2023-05-07T05:23:03;9.10;99.90
22167;DHT22;11249;52.468;13.776;2023-05-07T05:25:30;9.10;99.90
22167;DHT22;11249;52.468;13.776;2023-05-07T05:27:57;9.20;99.90
22167;DHT22;11249;52.468;13.776;2023-05-07T05:30:23;9.20;99.90
22167;DHT22;11249;52.468;13.776;2023-05-07T05:32:50;9.20;99.90
22167;DHT22;11249;52.468;13.776;2023-05-07T05:35:17;9.30;99.90
22167;DHT22;11249;52.468;13.776;2023-05-07T05:37:43;9.40;99.90
22167;DHT22;11249;52.468;13.776;2023-05-07T05:40:11;9.40;99.90
22167;DHT22;11249;52.468;13.776;2023-05-07T05:42:38;9.40;99.90
22167;DHT22;11249;52.468;13.776;2023-05-07T05:45:05;9.50;99.90
22167;DHT22;11249;52.468;13.776;2023-05-07T05:47:32;9.50;99.90
22167;DHT22;11249;52.468;13.776;2023-05-07T05:49:59;9.60;99.90
22167;DHT22;11249;52.468;13.776;2023-05-07T05:52:26;9.70;99.90
22167;DHT22;11249;52.468;13.776;2023-05-07T05:54:53;9.60;99.90
22167;DHT22;11249;52.468;13.776;2023-05-07T05:57:20;9.60;99.90
22167;DHT22;11249;52.468;13.776;2023-05-07T05:59:47;9.70;99.90
22167;DHT22;11249;52.468;13.776;2023-05-07T06:02:13;9.80;99.90
22167;DHT22;11249;52.468;13.776;2023-05-07T06:04:40;9.80;99.90
22167;DHT22;11249;52.468;13.776;2023-05-07T06:07:09;9.80;99.90
22167;DHT22;11249;52.468;13.776;2023-05-07T06:09:36;10.00;99.90
22167;DHT22;11249;52.468;13.776;2023-05-07T06:12:02;9.90;99.90
22167;DHT22;11249;52.468;13.776;2023-05-07T06:14:29;9.90;99.90
22167;DHT22;11249;52.468;13.776;2023-05-07T06:16:57;9.80;99.90
22167;DHT22;11249;52.468;13.776;2023-05-07T06:19:23;9.80;99.90
22167;DHT22;11249;52.468;13.776;2023-05-07T06:21:50;10.00;99.90
22167;DHT22;11249;52.468;13.776;2023-05-07T06:24:17;10.10;99.90
22167;DHT22;11249;52.468;13.776;2023-05-07T06:26:43;10.20;99.90
22167;DHT22;11249;52.468;13.776;2023-05-07T06:29:10;10.40;99.90
22167;DHT22;11249;52.468;13.776;2023-05-07T06:31:37;10.40;99.90
22167;DHT22;11249;52.468;13.776;2023-05-07T06:34:04;10.50;99.90
22167;DHT22;11249;52.468;13.776;2023-05-07T06:36:31;10.70;99.90
22167;DHT22;11249;52.468;13.776;2023-05-07T06:38:58;10.60;99.90
22167;DHT22;11249;52.468;13.776;2023-05-07T06:41:25;10.60;99.90
22167;DHT22;11249;52.468;13.776;2023-05-07T06:43:52;10.70;99.90
22167;DHT22;11249;52.468;13.776;2023-05-07T06:46:19;10.70;99.90
22167;DHT22;11249;52.468;13.776;2023-05-07T06:48:45;10.70;99.90
22167;DHT22;11249;52.468;13.776;2023-05-07T06:51:12;10.80;99.90
22167;DHT22;11249;52.468;13.776;2023-05-07T06:53:39;10.70;99.90
22167;DHT22;11249;52.468;13.776;2023-05-07T06:56:06;10.80;99.90
22167;DHT22;11249;52.468;13.776;2023-05-07T06:58:33;10.90;99.90
22167;DHT22;11249;52.468;13.776;2023-05-07T07:01:00;10.90;99.90
22167;DHT22;11249;52.468;13.776;2023-05-07T07:03:27;11.00;99.90
22167;DHT22;11249;52.468;13.776;2023-05-07T07:05:54;11.20;99.90
22167;DHT22;11249;52.468;13.776;2023-05-07T07:08:22;11.10;99.90
22167;DHT22;11249;52.468;13.776;2023-05-07T07:10:49;11.20;99.90
22167;DHT22;11249;52.468;13.776;2023-05-07T07:13:15;11.30;99.90
22167;DHT22;11249;52.468;13.776;2023-05-07T07:15:43;11.40;99.90
22167;DHT22;11249;52.468;13.776;2023-05-07T07:18:09;11.40;99.90
22167;DHT22;11249;52.468;13.776;2023-05-07T07:20:36;11.40;99.90
22167;DHT22;11249;52.468;13.776;2023-05-07T07:23:03;11.40;99.90
22167;DHT22;11249;52.468;13.776;2023-05-07T07:25:30;11.40;99.90
22167;DHT22;11249;52.468;13.776;2023-05-07T07:27:57;11.40;99.90
22167;DHT22;11249;52.468;13.776;2023-05-07T07:30:24;11.40;99.90
22167;DHT22;11249;52.468;13.776;2023-05-07T07:32:52;11.40;99.90
22167;DHT22;11249;52.468;13.776;2023-05-07T07:35:19;11.40;99.90
22167;DHT22;11249;52.468;13.776;2023-05-07T07:37:47;11.30;99.90
22167;DHT22;11249;52.468;13.776;2023-05-07T07:40:16;11.20;99.90
22167;DHT22;11249;52.468;13.776;2023-05-07T07:42:42;11.40;99.90
22167;DHT22;11249;52.468;13.776;2023-05-07T07:45:10;11.50;99.90
22167;DHT22;11249;52.468;13.776;2023-05-07T07:47:36;11.60;99.90
22167;DHT22;11249;52.468;13.776;2023-05-07T07:50:04;11.60;99.90
22167;DHT22;11249;52.468;13.776;2023-05-07T07:52:30;11.60;99.90
22167;DHT22;11249;52.468;13.776;2023-05-07T07:54:57;11.70;99.90
22167;DHT22;11249;52.468;13.776;2023-05-07T07:57:24;11.80;99.90
22167;DHT22;11249;52.468;13.776;2023-05-07T07:59:50;11.90;99.90
22167;DHT22;11249;52.468;13.776;2023-05-07T08:02:17;12.00;99.90
22167;DHT22;11249;52.468;13.776;2023-05-07T08:04:44;12.10;99.90
22167;DHT22;11249;52.468;13.776;2023-05-07T08:07:11;12.20;99.90
22167;DHT22;11249;52.468;13.776;2023-05-07T08:09:38;12.40;99.90
22167;DHT22;11249;52.468;13.776;2023-05-07T08:12:05;12.60;99.90
22167;DHT22;11249;52.468;13.776;2023-05-07T08:14:34;12.70;99.90
22167;DHT22;11249;52.468;13.776;2023-05-07T08:17:01;12.80;99.90
22167;DHT22;11249;52.468;13.776;2023-05-07T08:19:27;12.80;99.90
22167;DHT22;11249;52.468;13.776;2023-05-07T08:21:54;13.10;99.90
22167;DHT22;11249;52.468;13.776;2023-05-07T08:24:21;13.10;99.90
22167;DHT22;11249;52.468;13.776;2023-05-07T08:26:48;13.20;99.90
22167;DHT22;11249;52.468;13.776;2023-05-07T08:29:16;13.20;99.90
22167;DHT22;11249;52.468;13.776;2023-05-07T08:31:42;13.30;99.90
22167;DHT22;11249;52.468;13.776;2023-05-07T08:34:09;13.20;99.90
22167;DHT22;11249;52.468;13.776;2023-05-07T08:36:37;13.30;99.90
22167;DHT22;11249;52.468;13.776;2023-05-07T08:39:03;13.50;99.90
22167;DHT22;11249;52.468;13.776;2023-05-07T08:41:30;13.60;99.90
22167;DHT22;11249;52.468;13.776;2023-05-07T08:47:52;13.50;99.90
22167;DHT22;11249;52.468;13.776;2023-05-07T08:50:21;13.30;99.90
22167;DHT22;11249;52.468;13.776;2023-05-07T08:52:48;13.40;99.90
22167;DHT22;11249;52.468;13.776;2023-05-07T08:55:15;13.40;99.90
22167;DHT22;11249;52.468;13.776;2023-05-07T08:57:42;13.70;99.90
22167;DHT22;11249;52.468;13.776;2023-05-07T09:00:09;13.80;99.90
22167;DHT22;11249;52.468;13.776;2023-05-07T09:02:36;13.90;99.90
22167;DHT22;11249;52.468;13.776;2023-05-07T09:05:04;14.00;99.90
22167;DHT22;11249;52.468;13.776;2023-05-07T09:07:31;14.10;99.90
22167;DHT22;11249;52.468;13.776;2023-05-07T09:09:57;14.10;99.90
22167;DHT22;11249;52.468;13.776;2023-05-07T09:12:24;13.90;99.90
22167;DHT22;11249;52.468;13.776;2023-05-07T09:14:51;13.90;99.90
22167;DHT22;11249;52.468;13.776;2023-05-07T09:17:18;14.00;99.90
22167;DHT22;11249;52.468;13.776;2023-05-07T09:19:45;14.10;99.90
22167;DHT22;11249;52.468;13.776;2023-05-07T09:22:12;14.30;99.90
22167;DHT22;11249;52.468;13.776;2023-05-07T09:24:39;14.40;99.90
22167;DHT22;11249;52.468;13.776;2023-05-07T09:27:06;14.50;99.90
22167;DHT22;11249;52.468;13.776;2023-05-07T09:29:34;14.70;99.90
22167;DHT22;11249;52.468;13.776;2023-05-07T09:32:05;14.90;99.90
22167;DHT22;11249;52.468;13.776;2023-05-07T09:34:33;15.00;99.90
22167;DHT22;11249;52.468;13.776;2023-05-07T09:37:04;15.00;99.90
22167;DHT22;11249;52.468;13.776;2023-05-07T09:39:48;15.10;99.90
22167;DHT22;11249;52.468;13.776;2023-05-07T09:42:15;15.10;99.90
22167;DHT22;11249;52.468;13.776;2023-05-07T09:44:43;15.10;99.90
22167;DHT22;11249;52.468;13.776;2023-05-07T09:47:10;15.20;99.90
22167;DHT22;11249;52.468;13.776;2023-05-07T09:49:39;15.10;99.90
22167;DHT22;11249;52.468;13.776;2023-05-07T09:52:08;15.10;99.90
22167;DHT22;11249;52.468;13.776;2023-05-07T09:54:37;15.20;99.90
22167;DHT22;11249;52.468;13.776;2023-05-07T09:57:05;15.40;99.90
22167;DHT22;11249;52.468;13.776;2023-05-07T09:59:34;15.50;99.90
22167;DHT22;11249;52.468;13.776;2023-05-07T10:02:03;15.40;99.90
22167;DHT22;11249;52.468;13.776;2023-05-07T10:04:31;15.50;99.90
22167;DHT22;11249;52.468;13.776;2023-05-07T10:06:58;15.60;99.90
22167;DHT22;11249;52.468;13.776;2023-05-07T10:09:26;15.80;99.90
22167;DHT22;11249;52.468;13.776;2023-05-07T10:11:53;16.00;99.90
22167;DHT22;11249;52.468;13.776;2023-05-07T10:14:21;16.20;99.90
22167;DHT22;11249;52.468;13.776;2023-05-07T10:16:48;16.30;99.90
22167;DHT22;11249;52.468;13.776;2023-05-07T10:19:15;16.20;99.90
22167;DHT22;11249;52.468;13.776;2023-05-07T10:21:55;16.00;99.90
22167;DHT22;11249;52.468;13.776;2023-05-07T10:24:30;16.00;99.90
22167;DHT22;11249;52.468;13.776;2023-05-07T10:26:59;16.10;99.90
22167;DHT22;11249;52.468;13.776;2023-05-07T10:32:07;16.20;99.90
22167;DHT22;11249;52.468;13.776;2023-05-07T10:34:40;16.40;99.90
22167;DHT22;11249;52.468;13.776;2023-05-07T10:37:09;16.60;99.90
22167;DHT22;11249;52.468;13.776;2023-05-07T10:39:37;16.70;99.90
22167;DHT22;11249;52.468;13.776;2023-05-07T10:42:11;16.70;99.90
22167;DHT22;11249;52.468;13.776;2023-05-07T10:44:39;16.70;99.90
22167;DHT22;11249;52.468;13.776;2023-05-07T10:47:07;16.60;99.90
22167;DHT22;11249;52.468;13.776;2023-05-07T10:49:37;16.60;99.90
22167;DHT22;11249;52.468;13.776;2023-05-07T10:52:24;16.80;99.90
22167;DHT22;11249;52.468;13.776;2023-05-07T10:55:25;17.00;99.90
22167;DHT22;11249;52.468;13.776;2023-05-07T10:57:52;17.30;99.90
22167;DHT22;11249;52.468;13.776;2023-05-07T11:03:05;18.40;99.90
22167;DHT22;11249;52.468;13.776;2023-05-07T11:05:34;18.30;99.90
22167;DHT22;11249;52.468;13.776;2023-05-07T11:08:04;18.60;99.90
22167;DHT22;11249;52.468;13.776;2023-05-07T11:10:53;18.80;99.90
22167;DHT22;11249;52.468;13.776;2023-05-07T11:13:48;18.70;99.90
22167;DHT22;11249;52.468;13.776;2023-05-07T11:16:18;18.70;99.90
22167;DHT22;11249;52.468;13.776;2023-05-07T11:18:53;18.90;99.90
22167;DHT22;11249;52.468;13.776;2023-05-07T11:21:36;18.70;99.90
22167;DHT22;11249;52.468;13.776;2023-05-07T11:24:08;18.50;99.90
22167;DHT22;11249;52.468;13.776;2023-05-07T11:26:49;18.30;99.90
22167;DHT22;11249;52.468;13.776;2023-05-07T11:29:20;18.20;99.90
22167;DHT22;11249;52.468;13.776;2023-05-07T11:31:53;18.10;99.90
22167;DHT22;11249;52.468;13.776;2023-05-07T11:34:22;18.20;99.90
22167;DHT22;11249;52.468;13.776;2023-05-07T11:36:49;18.40;99.90
22167;DHT22;11249;52.468;13.776;2023-05-07T11:39:32;18.70;99.90
22167;DHT22;11249;52.468;13.776;2023-05-07T11:42:02;19.20;99.90
22167;DHT22;11249;52.468;13.776;2023-05-07T11:44:41;19.60;99.90
22167;DHT22;11249;52.468;13.776;2023-05-07T11:47:08;19.70;99.90
22167;DHT22;11249;52.468;13.776;2023-05-07T11:49:34;19.90;99.90
22167;DHT22;11249;52.468;13.776;2023-05-07T11:52:01;19.10;99.90
22167;DHT22;11249;52.468;13.776;2023-05-07T11:54:37;19.50;99.90
22167;DHT22;11249;52.468;13.776;2023-05-07T11:57:04;19.60;99.90
22167;DHT22;11249;52.468;13.776;2023-05-07T11:59:41;20.00;99.90
22167;DHT22;11249;52.468;13.776;2023-05-07T12:02:10;20.30;99.90
22167;DHT22;11249;52.468;13.776;2023-05-07T12:04:39;20.20;99.90
22167;DHT22;11249;52.468;13.776;2023-05-07T12:07:11;20.30;99.90
22167;DHT22;11249;52.468;13.776;2023-05-07T12:09:40;20.50;99.90
22167;DHT22;11249;52.468;13.776;2023-05-07T12:12:07;20.80;99.90
22167;DHT22;11249;52.468;13.776;2023-05-07T12:14:41;20.80;99.90
22167;DHT22;11249;52.468;13.776;2023-05-07T12:17:08;21.20;99.90
22167;DHT22;11249;52.468;13.776;2023-05-07T12:19:36;21.00;99.90
22167;DHT22;11249;52.468;13.776;2023-05-07T12:22:04;21.40;99.90
22167;DHT22;11249;52.468;13.776;2023-05-07T12:24:49;21.80;99.90
22167;DHT22;11249;52.468;13.776;2023-05-07T12:27:22;22.00;99.90
22167;DHT22;11249;52.468;13.776;2023-05-07T12:29:50;21.70;99.90
22167;DHT22;11249;52.468;13.776;2023-05-07T12:32:18;21.90;99.90
22167;DHT22;11249;52.468;13.776;2023-05-07T12:34:49;21.70;99.90
22167;DHT22;11249;52.468;13.776;2023-05-07T12:37:16;21.90;99.90
22167;DHT22;11249;52.468;13.776;2023-05-07T12:40:02;21.20;99.90
22167;DHT22;11249;52.468;13.776;2023-05-07T12:42:33;20.00;99.90
22167;DHT22;11249;52.468;13.776;2023-05-07T12:45:28;19.70;99.90
22167;DHT22;11249;52.468;13.776;2023-05-07T12:47:54;19.40;99.90
22167;DHT22;11249;52.468;13.776;2023-05-07T12:50:21;18.60;99.90
22167;DHT22;11249;52.468;13.776;2023-05-07T12:52:48;18.60;99.90
22167;DHT22;11249;52.468;13.776;2023-05-07T12:55:16;19.20;99.90
22167;DHT22;11249;52.468;13.776;2023-05-07T12:57:48;19.90;99.90
22167;DHT22;11249;52.468;13.776;2023-05-07T13:00:15;20.80;99.90
22167;DHT22;11249;52.468;13.776;2023-05-07T13:02:43;20.50;99.90
22167;DHT22;11249;52.468;13.776;2023-05-07T13:05:11;20.40;99.90
22167;DHT22;11249;52.468;13.776;2023-05-07T13:07:39;20.50;99.90
22167;DHT22;11249;52.468;13.776;2023-05-07T13:10:07;20.50;99.90
22167;DHT22;11249;52.468;13.776;2023-05-07T13:12:34;20.30;99.90
22167;DHT22;11249;52.468;13.776;2023-05-07T13:15:01;20.10;99.90
22167;DHT22;11249;52.468;13.776;2023-05-07T13:17:28;20.30;99.90
22167;DHT22;11249;52.468;13.776;2023-05-07T13:19:57;20.40;99.90
22167;DHT22;11249;52.468;13.776;2023-05-07T13:22:24;20.00;99.90
22167;DHT22;11249;52.468;13.776;2023-05-07T13:24:50;20.30;99.90
22167;DHT22;11249;52.468;13.776;2023-05-07T13:27:17;19.90;99.90
22167;DHT22;11249;52.468;13.776;2023-05-07T13:29:45;19.50;99.90
22167;DHT22;11249;52.468;13.776;2023-05-07T13:32:12;19.60;99.90
22167;DHT22;11249;52.468;13.776;2023-05-07T13:34:39;19.70;99.90
22167;DHT22;11249;52.468;13.776;2023-05-07T13:37:06;20.00;99.90
22167;DHT22;11249;52.468;13.776;2023-05-07T13:39:37;20.70;99.90
22167;DHT22;11249;52.468;13.776;2023-05-07T13:42:03;21.50;99.90
22167;DHT22;11249;52.468;13.776;2023-05-07T13:44:30;22.10;99.90
22167;DHT22;11249;52.468;13.776;2023-05-07T13:46:57;22.40;99.90
22167;DHT22;11249;52.468;13.776;2023-05-07T13:49:23;22.50;99.90
22167;DHT22;11249;52.468;13.776;2023-05-07T13:51:50;22.40;99.90
22167;DHT22;11249;52.468;13.776;2023-05-07T13:54:17;22.60;99.90
22167;DHT22;11249;52.468;13.776;2023-05-07T13:56:44;23.10;99.90
22167;DHT22;11249;52.468;13.776;2023-05-07T13:59:10;23.20;99.90
22167;DHT22;11249;52.468;13.776;2023-05-07T14:01:37;23.30;99.90
22167;DHT22;11249;52.468;13.776;2023-05-07T14:04:04;23.40;99.90
22167;DHT22;11249;52.468;13.776;2023-05-07T14:06:31;23.00;99.90
22167;DHT22;11249;52.468;13.776;2023-05-07T14:08:57;22.80;99.90
22167;DHT22;11249;52.468;13.776;2023-05-07T14:11:24;23.20;99.90
22167;DHT22;11249;52.468;13.776;2023-05-07T14:13:51;23.20;99.90
22167;DHT22;11249;52.468;13.776;2023-05-07T14:16:18;22.60;99.90
22167;DHT22;11249;52.468;13.776;2023-05-07T14:18:44;22.20;99.90
22167;DHT22;11249;52.468;13.776;2023-05-07T14:21:11;21.90;99.90
22167;DHT22;11249;52.468;13.776;2023-05-07T14:23:38;21.60;99.90
22167;DHT22;11249;52.468;13.776;2023-05-07T14:26:04;21.10;99.90
22167;DHT22;11249;52.468;13.776;2023-05-07T14:28:31;21.00;99.90
22167;DHT22;11249;52.468;13.776;2023-05-07T14:30:58;21.10;99.90
22167;DHT22;11249;52.468;13.776;2023-05-07T14:33:25;21.10;99.90
22167;DHT22;11249;52.468;13.776;2023-05-07T14:35:51;21.10;99.90
22167;DHT22;11249;52.468;13.776;2023-05-07T14:38:18;21.00;99.90
22167;DHT22;11249;52.468;13.776;2023-05-07T14:40:45;21.00;99.90
22167;DHT22;11249;52.468;13.776;2023-05-07T14:43:11;20.90;99.90
22167;DHT22;11249;52.468;13.776;2023-05-07T14:45:38;20.80;99.90
22167;DHT22;11249;52.468;13.776;2023-05-07T14:48:05;20.80;99.90
22167;DHT22;11249;52.468;13.776;2023-05-07T14:50:32;20.60;99.90
22167;DHT22;11249;52.468;13.776;2023-05-07T14:52:58;20.50;99.90
22167;DHT22;11249;52.468;13.776;2023-05-07T14:55:25;20.20;99.90
22167;DHT22;11249;52.468;13.776;2023-05-07T14:57:52;19.80;99.90
22167;DHT22;11249;52.468;13.776;2023-05-07T15:00:19;19.80;99.90
22167;DHT22;11249;52.468;13.776;2023-05-07T15:02:45;20.00;99.90
22167;DHT22;11249;52.468;13.776;2023-05-07T15:05:12;21.00;99.90
22167;DHT22;11249;52.468;13.776;2023-05-07T15:07:41;21.80;99.90
22167;DHT22;11249;52.468;13.776;2023-05-07T15:10:08;22.40;99.90
22167;DHT22;11249;52.468;13.776;2023-05-07T15:12:34;23.30;99.90
22167;DHT22;11249;52.468;13.776;2023-05-07T15:15:02;23.00;99.90
22167;DHT22;11249;52.468;13.776;2023-05-07T15:17:28;22.40;99.90
22167;DHT22;11249;52.468;13.776;2023-05-07T15:19:55;22.00;99.90
22167;DHT22;11249;52.468;13.776;2023-05-07T15:22:22;21.50;99.90
22167;DHT22;11249;52.468;13.776;2023-05-07T15:24:48;21.30;99.90
22167;DHT22;11249;52.468;13.776;2023-05-07T15:27:15;20.80;99.90
22167;DHT22;11249;52.468;13.776;2023-05-07T15:29:43;20.40;99.90
22167;DHT22;11249;52.468;13.776;2023-05-07T15:32:10;20.10;99.90
22167;DHT22;11249;52.468;13.776;2023-05-07T15:34:37;19.90;99.90
22167;DHT22;11249;52.468;13.776;2023-05-07T15:37:03;19.60;99.90